createdAt,value
2017-12-05T00:00:59.672Z,102015
2017-12-05T00:01:58.779Z,102014
2017-12-05T00:02:58.942Z,102014
2017-12-05T00:03:59.992Z,102013
2017-12-05T00:04:58.998Z,102018
2017-12-05T00:06:00.126Z,102016
2017-12-05T00:07:00.059Z,102013
2017-12-05T00:07:59.249Z,102011
2017-12-05T00:09:00.231Z,102009
2017-12-05T00:10:00.324Z,102007
2017-12-05T00:10:59.271Z,102007
2017-12-05T00:12:00.223Z,101999
2017-12-05T00:12:59.414Z,101995
2017-12-05T00:14:00.414Z,101988
2017-12-05T00:14:59.440Z,101995
2017-12-05T00:16:00.501Z,101987
2017-12-05T00:17:00.509Z,101985
2017-12-05T00:17:59.551Z,101974
2017-12-05T00:18:59.599Z,101982
2017-12-05T00:20:00.662Z,101982
2017-12-05T00:21:00.577Z,101972
2017-12-05T00:22:00.741Z,101980
2017-12-05T00:23:00.747Z,101980
2017-12-05T00:23:59.837Z,101974
2017-12-05T00:24:59.967Z,101976
2017-12-05T00:25:59.984Z,101970
2017-12-05T00:27:00.898Z,101971
2017-12-05T00:28:00.101Z,101972
2017-12-05T00:29:00.934Z,101969
2017-12-05T00:30:01.109Z,101974
2017-12-05T00:31:01.117Z,101969
2017-12-05T00:32:00.230Z,101966
2017-12-05T00:33:00.246Z,101964
2017-12-05T00:34:00.279Z,101970
2017-12-05T00:35:00.274Z,101967
2017-12-05T00:36:00.283Z,101955
2017-12-05T00:37:00.416Z,101959
2017-12-05T00:38:00.415Z,101950
2017-12-05T00:39:01.584Z,101955
2017-12-05T00:40:00.733Z,101964
2017-12-05T00:41:01.781Z,101961
2017-12-05T00:42:00.833Z,101957
2017-12-05T00:43:01.851Z,101962
2017-12-05T00:44:01.824Z,101962
2017-12-05T00:45:00.999Z,101958
2017-12-05T00:46:02.000Z,101964
2017-12-05T00:47:01.046Z,101966
2017-12-05T00:48:02.074Z,101967
2017-12-05T00:49:01.203Z,101966
2017-12-05T00:50:01.103Z,101966
2017-12-05T00:51:01.225Z,101961
2017-12-05T00:52:02.192Z,101957
2017-12-05T00:53:02.267Z,101954
2017-12-05T00:54:01.475Z,101961
2017-12-05T00:55:01.566Z,101956
2017-12-05T00:56:01.606Z,101946
2017-12-05T00:57:01.600Z,101951
2017-12-05T00:58:02.743Z,101955
2017-12-05T00:59:01.803Z,101951
2017-12-05T01:00:02.834Z,101955
2017-12-05T01:01:01.763Z,101949
2017-12-05T01:02:01.881Z,101954
2017-12-05T01:03:01.976Z,101958
2017-12-05T01:04:02.918Z,101960
2017-12-05T01:05:02.033Z,101954
2017-12-05T01:06:03.172Z,101954
2017-12-05T01:07:02.216Z,101962
2017-12-05T01:08:02.198Z,101965
2017-12-05T01:09:02.213Z,101967
2017-12-05T01:10:03.190Z,101962
2017-12-05T01:11:03.214Z,101965
2017-12-05T01:12:03.323Z,101965
2017-12-05T01:13:02.361Z,101967
2017-12-05T01:14:02.255Z,101967
2017-12-05T01:15:03.387Z,101958
2017-12-05T01:16:02.342Z,101968
2017-12-05T01:17:03.318Z,101969
2017-12-05T01:18:03.466Z,101969
2017-12-05T01:19:02.418Z,101972
2017-12-05T01:20:03.533Z,101963
2017-12-05T01:21:03.560Z,101978
2017-12-05T01:22:02.505Z,101977
2017-12-05T01:23:02.531Z,101977
2017-12-05T01:24:03.648Z,101977
2017-12-05T01:25:03.749Z,101981
2017-12-05T01:26:03.716Z,101986
2017-12-05T01:27:03.818Z,101988
2017-12-05T01:28:03.817Z,101985
2017-12-05T01:29:02.978Z,101983
2017-12-05T01:30:03.085Z,101982
2017-12-05T01:31:04.110Z,101986
2017-12-05T01:32:03.090Z,101984
2017-12-05T01:33:04.262Z,101988
2017-12-05T01:34:03.218Z,101986
2017-12-05T01:35:04.197Z,101972
2017-12-05T01:36:04.244Z,101987
2017-12-05T01:37:04.272Z,101990
2017-12-05T01:38:03.488Z,101994
2017-12-05T01:39:04.385Z,101990
2017-12-05T01:40:03.580Z,101993
2017-12-05T01:41:03.526Z,101998
2017-12-05T01:42:04.695Z,101993
2017-12-05T01:43:03.776Z,101992
2017-12-05T01:44:04.726Z,101994
2017-12-05T01:45:03.789Z,101997
2017-12-05T01:46:04.014Z,101999
2017-12-05T01:47:04.799Z,102003
2017-12-05T01:48:05.000Z,102001
2017-12-05T01:49:04.034Z,102004
2017-12-05T01:50:04.013Z,101991
2017-12-05T01:51:05.103Z,102004
2017-12-05T01:52:05.104Z,102004
2017-12-05T01:53:05.140Z,101998
2017-12-05T01:54:05.209Z,102003
2017-12-05T01:55:04.201Z,101997
2017-12-05T01:56:04.219Z,102000
2017-12-05T01:57:04.403Z,101999
2017-12-05T01:58:05.372Z,101991
2017-12-05T01:59:04.487Z,102002
2017-12-05T02:00:04.983Z,101999
2017-12-05T02:01:04.589Z,102001
2017-12-05T02:02:05.646Z,102005
2017-12-05T02:03:04.598Z,102005
2017-12-05T02:04:04.759Z,102008
2017-12-05T02:05:04.820Z,102010
2017-12-05T02:06:05.709Z,101998
2017-12-05T02:07:05.893Z,102006
2017-12-05T02:08:04.946Z,102007
2017-12-05T02:09:05.016Z,102009
2017-12-05T02:10:06.029Z,102009
2017-12-05T02:11:06.102Z,102007
2017-12-05T02:12:05.067Z,102011
2017-12-05T02:13:06.170Z,102012
2017-12-05T02:14:06.266Z,101999
2017-12-05T02:15:05.349Z,102014
2017-12-05T02:16:05.211Z,102017
2017-12-05T02:17:06.342Z,102012
2017-12-05T02:18:06.408Z,102011
2017-12-05T02:19:06.410Z,102005
2017-12-05T02:20:06.508Z,102009
2017-12-05T02:21:06.596Z,102002
2017-12-05T02:22:06.678Z,102007
2017-12-05T02:23:06.682Z,101997
2017-12-05T02:24:06.711Z,102007
2017-12-05T02:25:06.804Z,102007
2017-12-05T02:26:06.913Z,101996
2017-12-05T02:27:05.958Z,102003
2017-12-05T02:28:06.028Z,102007
2017-12-05T02:29:07.045Z,102007
2017-12-05T02:30:06.120Z,102010
2017-12-05T02:31:07.065Z,102008
2017-12-05T02:32:07.231Z,102016
2017-12-05T02:33:07.134Z,102004
2017-12-05T02:34:07.203Z,102006
2017-12-05T02:35:07.250Z,102010
2017-12-05T02:36:06.457Z,102003
2017-12-05T02:37:06.401Z,102010
2017-12-05T02:38:07.524Z,102011
2017-12-05T02:39:06.530Z,102009
2017-12-05T02:40:06.610Z,102003
2017-12-05T02:41:06.805Z,102011
2017-12-05T02:42:06.738Z,102013
2017-12-05T02:43:07.840Z,102000
2017-12-05T02:44:07.966Z,102003
2017-12-05T02:45:07.856Z,102005
2017-12-05T02:46:07.927Z,102004
2017-12-05T02:47:09.700Z,102002
2017-12-05T02:48:08.059Z,102001
2017-12-05T02:49:08.104Z,101997
2017-12-05T02:50:07.135Z,101994
2017-12-05T02:51:08.287Z,101998
2017-12-05T02:52:08.210Z,101989
2017-12-05T02:53:07.409Z,102003
2017-12-05T02:54:07.452Z,102000
2017-12-05T02:55:08.403Z,102002
2017-12-05T02:56:08.588Z,102003
2017-12-05T02:57:07.523Z,102000
2017-12-05T02:58:08.609Z,102004
2017-12-05T02:59:07.596Z,102004
2017-12-05T03:00:08.672Z,101998
2017-12-05T03:01:08.570Z,101998
2017-12-05T03:02:08.610Z,102001
2017-12-05T03:03:08.803Z,102004
2017-12-05T03:04:07.840Z,101998
2017-12-05T03:05:07.809Z,102000
2017-12-05T03:06:08.824Z,102006
2017-12-05T03:07:08.057Z,101991
2017-12-05T03:08:08.066Z,101999
2017-12-05T03:09:09.125Z,101998
2017-12-05T03:10:08.029Z,101998
2017-12-05T03:11:09.073Z,102002
2017-12-05T03:12:50.956Z,102001
2017-12-05T03:13:50.974Z,102003
2017-12-05T03:14:52.090Z,101993
2017-12-05T03:15:52.147Z,101993
2017-12-05T03:16:52.104Z,101996
2017-12-05T03:17:52.266Z,101993
2017-12-05T03:18:52.306Z,101987
2017-12-05T03:19:52.349Z,101985
2017-12-05T03:20:52.290Z,101982
2017-12-05T03:21:51.478Z,101980
2017-12-05T03:22:51.455Z,101980
2017-12-05T03:23:52.625Z,101971
2017-12-05T03:24:51.726Z,101972
2017-12-05T03:25:52.763Z,101967
2017-12-05T03:26:51.785Z,101977
2017-12-05T03:27:52.881Z,101973
2017-12-05T03:28:51.878Z,101979
2017-12-05T03:29:52.065Z,101970
2017-12-05T03:30:52.021Z,101979
2017-12-05T03:31:53.173Z,101984
2017-12-05T03:32:53.144Z,101980
2017-12-05T03:33:53.324Z,101978
2017-12-05T03:34:53.279Z,101978
2017-12-05T03:35:52.354Z,101975
2017-12-05T03:36:52.511Z,101974
2017-12-05T03:37:52.562Z,101965
2017-12-05T03:38:53.590Z,101960
2017-12-05T03:39:52.788Z,101958
2017-12-05T03:40:52.666Z,101961
2017-12-05T03:41:52.768Z,101958
2017-12-05T03:42:52.901Z,101953
2017-12-05T03:43:53.966Z,101958
2017-12-05T03:44:52.845Z,101955
2017-12-05T03:45:53.000Z,101955
2017-12-05T03:46:53.057Z,101950
2017-12-05T03:47:54.030Z,101951
2017-12-05T03:48:53.155Z,101950
2017-12-05T03:49:54.100Z,101941
2017-12-05T03:50:54.215Z,101954
2017-12-05T03:51:53.149Z,101956
2017-12-05T03:52:53.334Z,101956
2017-12-05T03:53:54.389Z,101959
2017-12-05T03:54:54.298Z,101958
2017-12-05T03:55:54.377Z,101959
2017-12-05T03:56:54.444Z,101952
2017-12-05T03:57:54.512Z,101949
2017-12-05T03:58:53.641Z,101961
2017-12-05T03:59:54.677Z,101959
2017-12-05T04:00:53.791Z,101959
2017-12-05T04:01:53.830Z,101952
2017-12-05T04:02:54.827Z,101953
2017-12-05T04:03:54.837Z,101955
2017-12-05T04:04:54.862Z,101946
2017-12-05T04:05:54.949Z,101956
2017-12-05T04:06:55.014Z,101959
2017-12-05T04:07:54.163Z,101954
2017-12-05T04:08:54.131Z,101971
2017-12-05T04:09:54.323Z,101961
2017-12-05T04:10:55.301Z,101961
2017-12-05T04:11:55.346Z,101967
2017-12-05T04:12:54.459Z,101965
2017-12-05T04:13:54.550Z,101959
2017-12-05T04:14:55.539Z,101950
2017-12-05T04:15:54.578Z,101961
2017-12-05T04:16:54.648Z,101964
2017-12-05T04:17:55.600Z,101967
2017-12-05T04:18:55.727Z,101963
2017-12-05T04:19:55.829Z,101952
2017-12-05T04:20:54.961Z,101962
2017-12-05T04:21:55.958Z,101964
2017-12-05T04:22:55.892Z,101961
2017-12-05T04:23:54.978Z,101959
2017-12-05T04:24:55.023Z,101963
2017-12-05T04:25:55.107Z,101959
2017-12-05T04:26:56.079Z,101958
2017-12-05T04:27:55.189Z,101958
2017-12-05T04:28:55.258Z,101957
2017-12-05T04:29:56.298Z,101964
2017-12-05T04:30:56.461Z,101965
2017-12-05T04:31:55.425Z,101967
2017-12-05T04:32:56.532Z,101960
2017-12-05T04:33:56.544Z,101969
2017-12-05T04:34:56.513Z,101973
2017-12-05T04:35:55.691Z,101971
2017-12-05T04:36:56.589Z,101969
2017-12-05T04:37:55.737Z,101973
2017-12-05T04:38:55.749Z,101974
2017-12-05T04:39:55.830Z,101977
2017-12-05T04:40:56.864Z,101962
2017-12-05T04:41:55.929Z,101971
2017-12-05T04:42:55.945Z,101971
2017-12-05T04:43:55.967Z,101971
2017-12-05T04:44:56.973Z,101966
2017-12-05T04:45:55.993Z,101964
2017-12-05T04:46:56.175Z,101967
2017-12-05T04:47:57.198Z,101958
2017-12-05T04:48:57.111Z,101964
2017-12-05T04:49:57.188Z,101958
2017-12-05T04:50:56.395Z,101963
2017-12-05T04:51:57.262Z,101960
2017-12-05T04:52:57.319Z,101961
2017-12-05T04:53:56.475Z,101963
2017-12-05T04:54:57.471Z,101962
2017-12-05T04:55:56.613Z,101968
2017-12-05T04:56:57.629Z,101959
2017-12-05T04:57:57.607Z,101974
2017-12-05T04:58:56.746Z,101969
2017-12-05T04:59:56.746Z,101970
2017-12-05T05:00:57.863Z,101969
2017-12-05T05:01:56.969Z,101970
2017-12-05T05:02:57.035Z,101966
2017-12-05T05:03:57.066Z,101963
2017-12-05T05:04:58.114Z,101966
2017-12-05T05:05:58.199Z,101970
2017-12-05T05:06:57.221Z,101973
2017-12-05T05:07:57.318Z,101975
2017-12-05T05:08:57.332Z,101976
2017-12-05T05:09:57.415Z,101977
2017-12-05T05:10:57.471Z,101978
2017-12-05T05:11:58.390Z,101983
2017-12-05T05:12:57.503Z,101980
2017-12-05T05:13:58.631Z,101978
2017-12-05T05:14:57.630Z,101979
2017-12-05T05:15:57.762Z,101975
2017-12-05T05:16:57.743Z,101973
2017-12-05T05:17:58.723Z,101969
2017-12-05T05:18:58.936Z,101980
2017-12-05T05:19:57.952Z,101977
2017-12-05T05:20:58.006Z,101975
2017-12-05T05:21:59.039Z,101970
2017-12-05T05:22:58.953Z,101968
2017-12-05T05:23:58.131Z,101964
2017-12-05T05:24:58.227Z,101978
2017-12-05T05:25:58.148Z,101974
2017-12-05T05:26:59.255Z,101968
2017-12-05T05:27:58.335Z,101971
2017-12-05T05:28:59.299Z,101972
2017-12-05T05:29:59.380Z,101974
2017-12-05T05:30:58.598Z,101983
2017-12-05T05:31:58.649Z,101984
2017-12-05T05:32:58.603Z,101984
2017-12-05T05:33:58.698Z,101990
2017-12-05T05:34:59.667Z,101980
2017-12-05T05:35:59.674Z,101986
2017-12-05T05:37:00.098Z,101978
2017-12-05T05:37:59.868Z,101991
2017-12-05T05:38:59.938Z,101993
2017-12-05T05:39:59.006Z,101993
2017-12-05T05:40:59.943Z,101980
2017-12-05T05:42:00.066Z,101987
2017-12-05T05:43:00.158Z,101991
2017-12-05T05:43:59.199Z,101981
2017-12-05T05:45:00.250Z,101987
2017-12-05T05:46:00.172Z,101992
2017-12-05T05:47:00.206Z,101990
2017-12-05T05:48:00.273Z,101982
2017-12-05T05:48:59.472Z,101982
2017-12-05T05:49:59.398Z,101979
2017-12-05T05:51:00.393Z,101978
2017-12-05T05:51:59.516Z,101996
2017-12-05T05:53:00.619Z,102000
2017-12-05T05:54:00.556Z,102002
2017-12-05T05:55:00.726Z,102004
2017-12-05T05:56:00.719Z,102001
2017-12-05T05:56:59.677Z,101994
2017-12-05T05:58:00.697Z,101991
2017-12-05T05:59:00.827Z,102000
2017-12-05T06:00:00.855Z,102000
2017-12-05T06:00:59.923Z,102002
2017-12-05T06:01:59.958Z,101993
2017-12-05T06:02:59.874Z,102007
2017-12-05T06:03:59.954Z,102003
2017-12-05T06:05:00.067Z,102007
2017-12-05T06:06:00.064Z,102004
2017-12-05T06:07:01.157Z,102012
2017-12-05T06:08:00.097Z,102007
2017-12-05T06:09:01.229Z,102009
2017-12-05T06:10:01.216Z,102007
2017-12-05T06:11:01.393Z,102003
2017-12-05T06:12:00.416Z,102011
2017-12-05T06:13:01.478Z,102010
2017-12-05T06:14:00.507Z,102014
2017-12-05T06:15:01.524Z,102012
2017-12-05T06:16:01.587Z,102022
2017-12-05T06:17:00.650Z,102019
2017-12-05T06:18:00.691Z,102015
2017-12-05T06:19:00.741Z,102022
2017-12-05T06:20:01.788Z,102025
2017-12-05T06:21:01.892Z,102008
2017-12-05T06:22:01.042Z,102017
2017-12-05T06:23:00.998Z,102023
2017-12-05T06:24:01.083Z,102024
2017-12-05T06:25:01.127Z,102025
2017-12-05T06:26:02.106Z,102022
2017-12-05T06:27:02.176Z,102021
2017-12-05T06:28:02.347Z,102017
2017-12-05T06:29:02.352Z,102021
2017-12-05T06:30:02.610Z,102016
2017-12-05T06:31:01.469Z,102024
2017-12-05T06:32:01.628Z,102016
2017-12-05T06:33:01.549Z,102011
2017-12-05T06:34:01.750Z,102016
2017-12-05T06:35:02.661Z,102024
2017-12-05T06:36:01.731Z,102026
2017-12-05T06:37:02.713Z,102018
2017-12-05T06:38:02.902Z,102020
2017-12-05T06:39:02.932Z,102018
2017-12-05T06:40:01.926Z,102017
2017-12-05T06:41:02.956Z,102019
2017-12-05T06:42:02.144Z,102011
2017-12-05T06:43:02.216Z,102023
2017-12-05T06:44:03.166Z,102023
2017-12-05T06:45:02.392Z,102026
2017-12-05T06:46:03.344Z,102017
2017-12-05T06:47:03.518Z,102028
2017-12-05T06:48:03.418Z,102030
2017-12-05T06:49:03.519Z,102027
2017-12-05T06:50:03.548Z,102027
2017-12-05T06:51:03.607Z,102024
2017-12-05T06:52:02.736Z,102017
2017-12-05T06:53:03.848Z,102020
2017-12-05T06:54:03.931Z,102021
2017-12-05T06:55:03.014Z,102014
2017-12-05T06:56:03.042Z,102013
2017-12-05T06:57:03.055Z,102012
2017-12-05T06:58:03.135Z,102022
2017-12-05T06:59:03.124Z,102022
2017-12-05T07:00:04.155Z,102020
2017-12-05T07:01:04.276Z,102017
2017-12-05T07:02:04.199Z,102021
2017-12-05T07:03:04.235Z,102014
2017-12-05T07:04:04.292Z,102019
2017-12-05T07:05:04.473Z,102009
2017-12-05T07:06:03.384Z,102018
2017-12-05T07:07:03.471Z,102015
2017-12-05T07:08:03.548Z,102023
2017-12-05T07:09:04.482Z,102019
2017-12-05T07:10:03.721Z,102021
2017-12-05T07:11:04.792Z,102025
2017-12-05T07:12:03.712Z,102025
2017-12-05T07:13:03.719Z,102018
2017-12-05T07:14:04.681Z,102025
2017-12-05T07:15:03.903Z,102026
2017-12-05T07:16:04.880Z,102028
2017-12-05T07:17:04.927Z,102030
2017-12-05T07:18:03.860Z,102023
2017-12-05T07:19:04.017Z,102034
2017-12-05T07:20:05.075Z,102034
2017-12-05T07:21:05.214Z,102031
2017-12-05T07:22:04.185Z,102025
2017-12-05T07:23:04.213Z,102027
2017-12-05T07:24:04.209Z,102045
2017-12-05T07:25:04.286Z,102027
2017-12-05T07:26:05.305Z,102033
2017-12-05T07:27:05.382Z,102035
2017-12-05T07:28:04.362Z,102034
2017-12-05T07:29:05.380Z,102035
2017-12-05T07:30:05.435Z,102033
2017-12-05T07:31:05.469Z,102029
2017-12-05T07:32:05.389Z,102031
2017-12-05T07:33:05.459Z,102033
2017-12-05T07:34:05.527Z,102025
2017-12-05T07:35:04.681Z,102034
2017-12-05T07:36:04.803Z,102030
2017-12-05T07:37:05.841Z,102032
2017-12-05T07:38:04.796Z,102026
2017-12-05T07:39:05.805Z,102027
2017-12-05T07:40:04.883Z,102024
2017-12-05T07:41:06.075Z,102028
2017-12-05T07:42:06.289Z,102032
2017-12-05T07:43:06.216Z,102033
2017-12-05T07:44:06.299Z,102033
2017-12-05T07:45:05.335Z,102037
2017-12-05T07:46:06.231Z,102032
2017-12-05T07:47:05.340Z,102034
2017-12-05T07:48:05.522Z,102038
2017-12-05T07:49:06.418Z,102045
2017-12-05T07:50:05.630Z,102023
2017-12-05T07:51:05.693Z,102031
2017-12-05T07:52:06.761Z,102029
2017-12-05T07:53:06.642Z,102030
2017-12-05T07:54:06.818Z,102030
2017-12-05T07:55:07.294Z,102033
2017-12-05T07:56:05.947Z,102035
2017-12-05T07:57:05.992Z,102033
2017-12-05T07:58:06.082Z,102033
2017-12-05T07:59:06.920Z,102032
2017-12-05T08:00:07.223Z,102025
2017-12-05T08:01:07.164Z,102027
2017-12-05T08:02:06.169Z,102026
2017-12-05T08:03:06.294Z,102028
2017-12-05T08:04:06.144Z,102022
2017-12-05T08:05:07.209Z,102028
2017-12-05T08:06:07.250Z,102020
2017-12-05T08:07:06.266Z,102026
2017-12-05T08:08:06.365Z,102022
2017-12-05T08:09:07.509Z,102021
2017-12-05T08:10:08.354Z,102023
2017-12-05T08:11:07.501Z,102031
2017-12-05T08:12:06.668Z,102029
2017-12-05T08:13:07.615Z,102019
2017-12-05T08:14:07.678Z,102028
2017-12-05T08:15:06.736Z,102027
2017-12-05T08:16:06.781Z,102027
2017-12-05T08:17:06.966Z,102025
2017-12-05T08:18:07.958Z,102029
2017-12-05T08:19:07.070Z,102023
2017-12-05T08:20:07.973Z,102034
2017-12-05T08:21:07.970Z,102029
2017-12-05T08:22:08.053Z,102029
2017-12-05T08:23:07.058Z,102024
2017-12-05T08:24:07.102Z,102030
2017-12-05T08:25:08.243Z,102021
2017-12-05T08:26:07.324Z,102028
2017-12-05T08:27:07.231Z,102023
2017-12-05T08:28:08.483Z,102027
2017-12-05T08:29:08.447Z,102023
2017-12-05T08:30:08.454Z,102032
2017-12-05T08:31:07.430Z,102026
2017-12-05T08:32:08.237Z,102029
2017-12-05T08:33:08.541Z,102035
2017-12-05T08:34:07.676Z,102036
2017-12-05T08:35:08.673Z,102037
2017-12-05T08:36:07.712Z,102034
2017-12-05T08:37:07.832Z,102031
2017-12-05T08:38:07.816Z,102030
2017-12-05T08:39:08.783Z,102033
2017-12-05T08:40:08.966Z,102039
2017-12-05T08:41:08.080Z,102040
2017-12-05T08:42:09.098Z,102039
2017-12-05T08:43:09.111Z,102039
2017-12-05T08:44:08.041Z,102041
2017-12-05T08:45:09.252Z,102041
2017-12-05T08:46:09.227Z,102039
2017-12-05T08:47:09.256Z,102037
2017-12-05T08:48:09.381Z,102040
2017-12-05T08:49:08.402Z,102047
2017-12-05T08:50:08.525Z,102046
2017-12-05T08:51:08.672Z,102049
2017-12-05T08:52:08.620Z,102048
2017-12-05T08:53:08.707Z,102043
2017-12-05T08:54:09.629Z,102042
2017-12-05T08:55:08.833Z,102046
2017-12-05T08:56:10.507Z,102046
2017-12-05T08:57:08.860Z,102057
2017-12-05T08:58:08.984Z,102048
2017-12-05T08:59:09.847Z,102056
2017-12-05T09:00:09.900Z,102056
2017-12-05T09:01:09.069Z,102054
2017-12-05T09:02:11.203Z,102055
2017-12-05T09:03:09.056Z,102051
2017-12-05T09:04:10.153Z,102058
2017-12-05T09:05:10.386Z,102059
2017-12-05T09:06:10.531Z,102054
2017-12-05T09:07:10.581Z,102059
2017-12-05T09:08:09.498Z,102059
2017-12-05T09:09:10.344Z,102065
2017-12-05T09:10:10.543Z,102063
2017-12-05T09:11:09.541Z,102065
2017-12-05T09:12:11.108Z,102063
2017-12-05T09:13:10.573Z,102056
2017-12-05T09:14:10.687Z,102065
2017-12-05T09:15:09.626Z,102064
2017-12-05T09:16:10.672Z,102068
2017-12-05T09:17:09.709Z,102072
2017-12-05T09:18:09.799Z,102069
2017-12-05T09:19:10.902Z,102074
2017-12-05T09:20:10.944Z,102073
2017-12-05T09:21:09.896Z,102075
2017-12-05T09:22:11.078Z,102080
2017-12-05T09:23:11.060Z,102081
2017-12-05T09:24:11.102Z,102078
2017-12-05T09:25:11.199Z,102081
2017-12-05T09:26:11.237Z,102079
2017-12-05T09:27:10.624Z,102076
2017-12-05T09:28:11.236Z,102083
2017-12-05T09:29:10.367Z,102085
2017-12-05T09:30:11.473Z,102084
2017-12-05T09:31:11.684Z,102084
2017-12-05T09:32:10.633Z,102087
2017-12-05T09:33:10.646Z,102087
2017-12-05T09:34:10.643Z,102094
2017-12-05T09:35:11.588Z,102086
2017-12-05T09:36:11.680Z,102080
2017-12-05T09:37:11.647Z,102082
2017-12-05T09:38:10.872Z,102093
2017-12-05T09:39:11.768Z,102085
2017-12-05T09:40:10.790Z,102084
2017-12-05T09:41:10.758Z,102082
2017-12-05T09:42:10.925Z,102089
2017-12-05T09:43:11.319Z,102094
2017-12-05T09:44:11.038Z,102090
2017-12-05T09:45:12.130Z,102093
2017-12-05T09:46:11.767Z,102090
2017-12-05T09:47:11.159Z,102092
2017-12-05T09:48:12.183Z,102088
2017-12-05T09:49:12.002Z,102093
2017-12-05T09:50:12.156Z,102091
2017-12-05T09:51:12.316Z,102090
2017-12-05T09:52:12.295Z,102095
2017-12-05T09:53:12.268Z,102091
2017-12-05T09:54:11.505Z,102099
2017-12-05T09:55:11.533Z,102094
2017-12-05T09:56:11.571Z,102090
2017-12-05T09:57:12.787Z,102097
2017-12-05T09:58:11.996Z,102095
2017-12-05T09:59:11.821Z,102086
2017-12-05T10:00:12.906Z,102093
2017-12-05T10:01:12.867Z,102088
2017-12-05T10:02:12.934Z,102087
2017-12-05T10:03:12.130Z,102096
2017-12-05T10:04:13.136Z,102093
2017-12-05T10:05:12.129Z,102089
2017-12-05T10:06:12.332Z,102095
2017-12-05T10:07:13.221Z,102092
2017-12-05T10:08:13.678Z,102086
2017-12-05T10:09:13.388Z,102090
2017-12-05T10:10:12.838Z,102091
2017-12-05T10:11:14.444Z,102086
2017-12-05T10:12:14.297Z,102082
2017-12-05T10:13:13.454Z,102084
2017-12-05T10:14:13.323Z,102075
2017-12-05T10:15:14.077Z,102081
2017-12-05T10:16:14.015Z,102072
2017-12-05T10:17:12.931Z,102077
2017-12-05T10:18:12.978Z,102078
2017-12-05T10:19:14.027Z,102079
2017-12-05T10:20:14.048Z,102070
2017-12-05T10:21:14.252Z,102076
2017-12-05T10:22:14.302Z,102071
2017-12-05T10:23:14.327Z,102075
2017-12-05T10:24:14.367Z,102076
2017-12-05T10:25:14.401Z,102075
2017-12-05T10:26:13.351Z,102071
2017-12-05T10:27:13.484Z,102073
2017-12-05T10:28:14.519Z,102069
2017-12-05T10:29:14.507Z,102073
2017-12-05T10:30:14.596Z,102070
2017-12-05T10:31:14.508Z,102070
2017-12-05T10:32:14.591Z,102072
2017-12-05T10:33:13.596Z,102072
2017-12-05T10:34:13.670Z,102069
2017-12-05T10:35:14.442Z,102061
2017-12-05T10:36:13.752Z,102075
2017-12-05T10:37:14.883Z,102073
2017-12-05T10:38:14.834Z,102076
2017-12-05T10:39:14.260Z,102076
2017-12-05T10:40:14.057Z,102070
2017-12-05T10:41:15.081Z,102079
2017-12-05T10:42:14.067Z,102076
2017-12-05T10:43:14.272Z,102072
2017-12-05T10:44:14.326Z,102077
2017-12-05T10:45:15.381Z,102074
2017-12-05T10:46:14.331Z,102066
2017-12-05T10:47:16.346Z,102074
2017-12-05T10:48:15.210Z,102069
2017-12-05T10:49:14.445Z,102072
2017-12-05T10:50:15.548Z,102064
2017-12-05T10:51:16.935Z,102067
2017-12-05T10:52:15.513Z,102065
2017-12-05T10:53:15.522Z,102066
2017-12-05T10:54:15.667Z,102064
2017-12-05T10:55:14.764Z,102062
2017-12-05T10:56:14.869Z,102063
2017-12-05T10:57:16.509Z,102061
2017-12-05T10:58:14.916Z,102066
2017-12-05T10:59:15.995Z,102062
2017-12-05T11:00:15.169Z,102063
2017-12-05T11:01:15.214Z,102060
2017-12-05T11:02:15.017Z,102053
2017-12-05T11:03:15.367Z,102055
2017-12-05T11:04:16.229Z,102063
2017-12-05T11:05:15.126Z,102052
2017-12-05T11:06:17.677Z,102049
2017-12-05T11:07:17.209Z,102058
2017-12-05T11:08:15.840Z,102049
2017-12-05T11:09:16.673Z,102049
2017-12-05T11:10:15.860Z,102042
2017-12-05T11:11:17.624Z,102058
2017-12-05T11:12:15.817Z,102052
2017-12-05T11:13:17.588Z,102055
2017-12-05T11:14:16.377Z,102055
2017-12-05T11:15:16.746Z,102042
2017-12-05T11:16:16.029Z,102054
2017-12-05T11:17:15.866Z,102047
2017-12-05T11:18:17.440Z,102055
2017-12-05T11:19:16.819Z,102055
2017-12-05T11:20:15.992Z,102055
2017-12-05T11:21:17.112Z,102054
2017-12-05T11:22:17.479Z,102061
2017-12-05T11:23:16.431Z,102056
2017-12-05T11:24:18.118Z,102054
2017-12-05T11:25:18.014Z,102055
2017-12-05T11:26:16.498Z,102056
2017-12-05T11:27:17.919Z,102056
2017-12-05T11:28:17.647Z,102052
2017-12-05T11:29:17.649Z,102054
2017-12-05T11:30:16.690Z,102069
2017-12-05T11:31:17.849Z,102050
2017-12-05T11:32:17.783Z,102050
2017-12-05T11:33:18.126Z,102057
2017-12-05T11:34:17.168Z,102043
2017-12-05T11:35:18.063Z,102053
2017-12-05T11:36:18.537Z,102053
2017-12-05T11:37:17.506Z,102042
2017-12-05T11:38:17.242Z,102046
2017-12-05T11:39:17.042Z,102050
2017-12-05T11:40:18.214Z,102050
2017-12-05T11:41:18.682Z,102049
2017-12-05T11:42:18.374Z,102053
2017-12-05T11:43:18.095Z,102052
2017-12-05T11:44:17.747Z,102055
2017-12-05T11:45:17.500Z,102049
2017-12-05T11:46:17.790Z,102052
2017-12-05T11:47:18.574Z,102046
2017-12-05T11:48:19.325Z,102040
2017-12-05T11:49:19.327Z,102042
2017-12-05T11:50:18.793Z,102041
2017-12-05T11:51:20.023Z,102046
2017-12-05T11:52:17.876Z,102040
2017-12-05T11:53:18.883Z,102032
2017-12-05T11:54:18.925Z,102032
2017-12-05T11:55:19.003Z,102038
2017-12-05T11:56:18.161Z,102035
2017-12-05T11:57:18.112Z,102032
2017-12-05T11:58:18.948Z,102028
2017-12-05T11:59:19.049Z,102036
2017-12-05T12:00:18.047Z,102033
2017-12-05T12:01:18.126Z,102026
2017-12-05T12:02:19.134Z,102028
2017-12-05T12:03:18.250Z,102027
2017-12-05T12:04:19.373Z,102028
2017-12-05T12:05:19.288Z,102033
2017-12-05T12:06:18.444Z,102026
2017-12-05T12:07:18.433Z,101985
2017-12-05T12:08:19.491Z,102020
2017-12-05T12:09:19.565Z,102024
2017-12-05T12:10:18.585Z,102022
2017-12-05T12:11:19.530Z,102024
2017-12-05T12:12:19.526Z,102021
2017-12-05T12:13:19.679Z,102020
2017-12-05T12:14:18.958Z,102031
2017-12-05T12:15:19.296Z,102020
2017-12-05T12:16:19.272Z,102020
2017-12-05T12:17:20.213Z,102021
2017-12-05T12:18:19.809Z,102024
2017-12-05T12:19:20.033Z,102017
2017-12-05T12:20:20.328Z,102020
2017-12-05T12:21:19.332Z,102015
2017-12-05T12:22:20.236Z,102014
2017-12-05T12:23:20.253Z,102020
2017-12-05T12:24:20.688Z,102026
2017-12-05T12:25:20.445Z,102017
2017-12-05T12:26:19.603Z,102024
2017-12-05T12:27:20.466Z,102010
2017-12-05T12:28:20.542Z,102008
2017-12-05T12:29:20.594Z,102018
2017-12-05T12:30:20.961Z,102013